Flight Track Log - Related Links

Times and Time Zones

All times are in EDT time to prevent confusion due to time zone crossing. See the FFT571 flight status page for this flight to view local times or setup timezone preferences in your user account.

Time Position Orientation Groundspeed Altitude Reporting Facility
EDT Latitude Longitude Course Direction KTS MPH feet Rate Location/Type
Tue 11:38:31 PM 39.8500 -104.7833 285° West 193 222 6,900  Level Denver TRACON
Tue 11:39:31 PM 39.8667 -104.8667 282° West 278 320 7,900 1,905 Climbing Denver TRACON
Tue 11:40:37 PM 39.8833 -104.9667 290° West 301 346 10,900 2,850 Climbing Denver TRACON
Tue 11:41:31 PM 39.9167 -105.0833 274° West 324 373 13,600 2,637 Climbing Denver TRACON
Tue 11:42:08 PM 39.9194 -105.1331 287° West 330 380 14,900 2,660 Climbing Denver Center
Tue 11:43:08 PM 39.9458 -105.2489 284° West 330 380 17,900 2,700 Climbing Denver Center
Tue 11:44:08 PM 39.9678 -105.3678 285° West 330 380 20,300 2,300 Climbing Denver Center
Tue 11:45:08 PM 39.9919 -105.4894 284° West 341 392 22,500 2,250 Climbing Denver Center
Tue 11:46:08 PM 40.0181 -105.6272 274° West 356 410 24,800 1,850 Climbing Denver Center
Tue 11:47:08 PM 40.0253 -105.7600 267° West 361 415 26,200 1,600 Climbing Denver Center
Tue 11:48:08 PM 40.0197 -105.8983 267° West 375 432 28,000 1,850 Climbing Denver Center
Tue 11:49:08 PM 40.0139 -106.0422 267° West 394 453 29,900 1,700 Climbing Denver Center
Tue 11:50:08 PM 40.0083 -106.1833 267° West 395 455 31,400 1,600 Climbing Denver Center
Tue 11:51:08 PM 40.0022 -106.3242 268° West 395 455 33,100 1,300 Climbing Denver Center
Tue 11:52:08 PM 39.9981 -106.4653 275° West 395 455 34,000 1,100 Climbing Denver Center
Tue 11:53:08 PM 40.0064 -106.5925 275° West 390 449 35,300 1,000 Climbing Denver Center
Tue 11:54:08 PM 40.0167 -106.7472 273° West 395 455 36,000 350 Climbing Denver Center
Tue 11:55:08 PM 40.0225 -106.8800 273° West 390 449 36,000  Level Denver Center
Tue 11:56:08 PM 40.0281 -107.0103 274° West 390 449 36,000  Level Denver Center
Tue 11:57:08 PM 40.0356 -107.1675 274° West 390 449 36,000  Level Denver Center
Tue 11:58:08 PM 40.0431 -107.3061 273° West 390 449 36,000  Level Denver Center
Tue 11:59:08 PM 40.0481 -107.4444 273° West 385 443 36,000  Level Denver Center
Wed 12:00:08 AM 40.0533 -107.5667 273° West 385 443 36,000  Level Denver Center
Wed 12:01:08 AM 40.0600 -107.7158 273° West 385 443 36,000  Level Denver Center
Wed 12:02:08 AM 40.0647 -107.8517 273° West 379 436 36,000  Level Denver Center
Wed 12:03:08 AM 40.0694 -107.9819 274° West 379 436 36,000  Level Denver Center
Wed 12:04:08 AM 40.0761 -108.1042 274° West 374 430 36,000  Level Denver Center
Wed 12:05:08 AM 40.0844 -108.2511 272° West 374 430 36,000  Level Denver Center
Wed 12:06:08 AM 40.0883 -108.3897 273° West 374 430 36,000  Level Denver Center
Wed 12:06:48 AM 40.0914 -108.4717 274° West 376 433 36,000  Level Salt Lake Center
Wed 12:07:50 AM 40.0986 -108.6222 273° West 375 432 36,000  Level Salt Lake Center
Wed 12:08:51 AM 40.1039 -108.7517 273° West 375 432 36,000 49 Level Salt Lake Center
Wed 12:09:52 AM 40.1086 -108.8825 272° West 377 434 36,100  Climbing Salt Lake Center
Wed 12:10:53 AM 40.1133 -109.0331 273° West 375 432 36,000 -49 Descending Salt Lake Center
Wed 12:11:55 AM 40.1183 -109.1600 273° West 371 427 36,000  Level Salt Lake Center
Wed 12:12:56 AM 40.1239 -109.3067 273° West 365 420 36,000 -393 Level Salt Lake Center
Wed 12:13:57 AM 40.1283 -109.4317 272° West 362 417 35,200 -836 Descending Salt Lake Center
Wed 12:14:58 AM 40.1325 -109.5603 272° West 368 423 34,300 -984 Descending Salt Lake Center
Wed 12:15:59 AM 40.1372 -109.7189 272° West 385 443 33,200 -1,024 Descending Salt Lake Center
Wed 12:17:01 AM 40.1411 -109.8519 272° West 385 443 32,200 -1,024 Descending Salt Lake Center
Wed 12:18:02 AM 40.1456 -110.0022 272° West 375 432 31,100 -1,033 Descending Salt Lake Center
Wed 12:19:03 AM 40.1494 -110.1289 270° West 368 423 30,100 -541 Descending Salt Lake Center
Wed 12:20:04 AM 40.1497 -110.2542 269° West 363 418 30,000 -49 Descending Salt Lake Center
Wed 12:21:05 AM 40.1469 -110.3972 270° West 356 410 30,000  Level Salt Lake Center
Wed 12:22:06 AM 40.1461 -110.5222 269° West 357 411 30,000 -197 Level Salt Lake Center
Wed 12:23:07 AM 40.1444 -110.6478 269° West 360 414 29,600 -732 Descending Salt Lake Center
Wed 12:24:09 AM 40.1433 -110.7931 269° West 359 413 28,500 -976 Descending Salt Lake Center
Wed 12:25:10 AM 40.1417 -110.9186 269° West 361 415 27,600 -984 Descending Salt Lake Center
Wed 12:26:11 AM 40.1397 -111.0647 269° West 367 422 26,500 -1,426 Descending Salt Lake Center
Wed 12:27:12 AM 40.1378 -111.2006 269° West 370 426 24,700 -2,016 Descending Salt Lake Center
Wed 12:28:13 AM 40.1358 -111.3347 266° West 367 422 22,400 -2,296 Descending Salt Lake Center
Wed 12:29:07 AM 40.1278 -111.4725 279° West 369 425 20,300 -1,981 Descending Salt Lake Center
Wed 12:29:56 AM 40.1394 -111.5725 306° West 361 415 19,000 -716 Descending Salt Lake Center
Wed 12:30:56 AM 40.1967 -111.6739 308° West 349 402 19,000 -209 Level Salt Lake Center
Wed 12:31:51 AM 40.2483 -111.7600 307° West 350 403 18,600 -776 Descending Salt Lake Center
Wed 12:32:52 AM 40.3114 -111.8708 308° West 349 402 17,500 -1,091 Descending Salt Lake Center
Wed 12:33:52 AM 40.3697 -111.9694 316° Northwest 344 396 16,400 -1,388 Descending Salt Lake Center
Wed 12:34:53 AM 40.4383 -112.0561 355° North 344 396 14,700 -1,736 Descending Salt Lake Center
Wed 12:35:53 AM 40.5311 -112.0669 355° North 340 391 12,900 -1,736 Descending Salt Lake Center
Wed 12:36:54 AM 40.6236 -112.0781 354° North 337 388 11,200 -984 Descending Salt Lake Center
Wed 12:37:55 AM 40.7142 -112.0900 356° North 329 379 10,900 -261 Descending Salt Lake Center
Wed 12:38:49 AM 40.7950 -112.0967 355° North 312 359 10,700 -742 Descending Salt Lake Center
Wed 12:39:24 AM 40.8361 -112.1014 355° North 303 349 9,800 -1,813 Descending Salt Lake Center
Wed 12:40:25 AM 40.9192 -112.1111 32° Northeast 296 341 7,800 -1,891 Descending Salt Lake Center
Wed 12:40:56 AM 40.9539 -112.0825 81° East 275 316 6,900 -1,574 Descending Salt Lake Center
Wed 12:41:26 AM 40.9589 -112.0408 152° Southeast 269 310 6,200 -791 Descending Salt Lake Center
Wed 12:42:27 AM 40.9103 -112.0061 180° South 214 246 5,700 -492 Descending Salt Lake Center
Wed 12:43:28 AM 40.8631 -112.0064 174° South 168 193 5,200 -639 Descending Salt Lake Center
Wed 12:44:29 AM 40.8178 -112.0000 174° South 164 189 4,400 -787 Descending Salt Lake Center

Login

Don't have an account? Register now (free) for customized features, flight alerts, and more!